createdAt,value
2017-11-19T00:01:05.271Z,6.50
2017-11-19T00:03:32.166Z,6.40
2017-11-19T00:05:59.090Z,6.10
2017-11-19T00:08:26.008Z,5.90
2017-11-19T00:10:52.907Z,6.10
2017-11-19T00:13:19.837Z,6.30
2017-11-19T00:15:46.754Z,6.30
2017-11-19T00:18:13.651Z,6.00
2017-11-19T00:20:41.012Z,5.70
2017-11-19T00:23:08.350Z,5.70
2017-11-19T00:25:35.241Z,5.70
2017-11-19T00:28:02.138Z,5.70
2017-11-19T00:30:29.083Z,5.80
2017-11-19T00:32:55.980Z,5.90
2017-11-19T00:35:22.879Z,5.80
2017-11-19T00:37:49.807Z,5.90
2017-11-19T00:40:16.732Z,5.90
2017-11-19T00:42:43.627Z,5.90
2017-11-19T00:45:10.983Z,5.90
2017-11-19T00:47:38.271Z,6.10
2017-11-19T00:50:05.172Z,6.10
2017-11-19T00:52:32.126Z,6.10
2017-11-19T00:54:59.491Z,5.90
2017-11-19T00:57:26.838Z,5.90
2017-11-19T00:59:54.171Z,5.80
2017-11-19T01:02:21.069Z,5.80
2017-11-19T01:04:47.962Z,5.90
2017-11-19T01:07:14.887Z,5.80
2017-11-19T01:09:41.793Z,5.90
2017-11-19T01:12:09.115Z,5.80
2017-11-19T01:14:36.008Z,5.80
2017-11-19T01:17:02.926Z,5.80
2017-11-19T01:19:30.234Z,6.10
2017-11-19T01:21:57.142Z,6.10
2017-11-19T01:24:24.103Z,6.30
2017-11-19T01:26:50.996Z,6.50
2017-11-19T01:29:17.911Z,6.60
2017-11-19T01:31:44.850Z,6.70
2017-11-19T01:34:11.756Z,6.70
2017-11-19T01:36:39.051Z,6.50
2017-11-19T01:39:05.964Z,6.50
2017-11-19T01:41:33.248Z,6.70
2017-11-19T01:44:00.159Z,6.70
2017-11-19T01:46:27.479Z,7.00
2017-11-19T01:48:54.399Z,7.00
2017-11-19T01:51:21.287Z,7.00
2017-11-19T01:53:48.228Z,6.90
2017-11-19T01:56:15.119Z,7.00
2017-11-19T01:58:42.034Z,7.00
2017-11-19T02:01:09.328Z,7.10
2017-11-19T02:03:36.240Z,7.10
2017-11-19T02:06:03.532Z,7.20
2017-11-19T02:08:30.457Z,7.20
2017-11-19T02:10:57.343Z,7.20
2017-11-19T02:13:24.264Z,7.30
2017-11-19T02:15:51.185Z,7.20
2017-11-19T02:18:18.475Z,7.20
2017-11-19T02:20:45.412Z,7.20
2017-11-19T02:23:12.303Z,7.30
2017-11-19T02:25:39.199Z,7.30
2017-11-19T02:28:06.121Z,7.40
2017-11-19T02:30:33.408Z,7.50
2017-11-19T02:33:00.328Z,7.50
2017-11-19T02:35:27.223Z,7.40
2017-11-19T02:37:54.149Z,7.20
2017-11-19T02:40:21.049Z,7.10
2017-11-19T02:42:48.367Z,6.70
2017-11-19T02:45:15.296Z,6.70
2017-11-19T02:47:42.193Z,6.60
2017-11-19T02:50:09.508Z,6.60
2017-11-19T02:52:36.411Z,6.60
2017-11-19T02:55:03.340Z,6.70
2017-11-19T02:57:30.651Z,7.00
2017-11-19T02:59:57.545Z,7.00
2017-11-19T03:02:24.867Z,7.10
2017-11-19T03:04:51.758Z,7.10
2017-11-19T03:07:18.691Z,7.30
2017-11-19T03:09:46.011Z,7.10
2017-11-19T03:12:12.928Z,7.10
2017-11-19T03:14:39.855Z,6.70
2017-11-19T03:17:06.780Z,6.60
2017-11-19T03:19:34.108Z,6.60
2017-11-19T03:22:01.010Z,6.60
2017-11-19T03:24:27.939Z,6.70
2017-11-19T03:26:55.254Z,7.00
2017-11-19T03:29:22.171Z,7.00
2017-11-19T03:31:49.074Z,7.10
2017-11-19T03:34:16.389Z,7.20
2017-11-19T03:36:43.279Z,7.20
2017-11-19T03:39:10.588Z,7.20
2017-11-19T03:41:37.508Z,7.20
2017-11-19T03:44:04.428Z,7.00
2017-11-19T03:46:31.743Z,6.70
2017-11-19T03:48:58.639Z,6.70
2017-11-19T03:51:25.553Z,6.30
2017-11-19T03:53:52.444Z,6.10
2017-11-19T03:56:19.354Z,6.20
2017-11-19T03:58:46.675Z,6.60
2017-11-19T04:01:13.562Z,6.60
2017-11-19T04:03:40.878Z,6.90
2017-11-19T04:06:07.767Z,6.90
2017-11-19T04:08:35.080Z,7.00
2017-11-19T04:11:01.976Z,7.00
2017-11-19T04:13:28.898Z,6.80
2017-11-19T04:15:55.790Z,6.60
2017-11-19T04:18:22.719Z,6.50
2017-11-19T04:20:49.604Z,6.60
2017-11-19T04:23:16.491Z,6.60
2017-11-19T04:25:43.807Z,6.70
2017-11-19T04:28:10.730Z,6.70
2017-11-19T04:30:37.635Z,6.90
2017-11-19T04:33:04.931Z,7.00
2017-11-19T04:35:31.847Z,7.00
2017-11-19T04:37:58.766Z,7.10
2017-11-19T04:40:25.682Z,7.20
2017-11-19T04:42:52.576Z,7.20
2017-11-19T04:45:19.889Z,7.30
2017-11-19T04:47:46.784Z,7.30
2017-11-19T04:50:13.694Z,7.30
2017-11-19T04:52:40.610Z,7.30
2017-11-19T04:55:07.512Z,7.30
2017-11-19T04:57:34.805Z,7.30
2017-11-19T05:00:01.799Z,7.30
2017-11-19T05:02:28.699Z,7.30
2017-11-19T05:04:55.587Z,7.30
2017-11-19T05:07:22.506Z,7.40
2017-11-19T05:09:49.435Z,7.30
2017-11-19T05:12:16.389Z,7.30
2017-11-19T05:14:43.280Z,7.20
2017-11-19T05:17:10.618Z,6.50
2017-11-19T05:19:37.507Z,6.50
2017-11-19T05:22:04.402Z,6.20
2017-11-19T05:24:31.327Z,6.30
2017-11-19T05:26:58.311Z,6.50
2017-11-19T05:29:25.250Z,6.70
2017-11-19T05:31:52.171Z,6.90
2017-11-19T05:34:19.062Z,6.90
2017-11-19T05:36:46.386Z,7.10
2017-11-19T05:39:13.360Z,7.10
2017-11-19T05:41:40.684Z,7.10
2017-11-19T05:44:07.578Z,7.10
2017-11-19T05:46:34.474Z,7.10
2017-11-19T05:49:01.403Z,7.10
2017-11-19T05:51:28.296Z,7.00
2017-11-19T05:53:55.590Z,6.40
2017-11-19T05:56:22.533Z,6.40
2017-11-19T05:58:49.460Z,6.20
2017-11-19T06:01:16.346Z,6.10
2017-11-19T06:03:43.359Z,6.20
2017-11-19T06:06:10.246Z,6.30
2017-11-19T06:08:37.134Z,6.40
2017-11-19T06:11:04.454Z,6.50
2017-11-19T06:13:31.346Z,6.50
2017-11-19T06:15:58.255Z,6.60
2017-11-19T06:18:25.179Z,6.80
2017-11-19T06:20:52.122Z,6.90
2017-11-19T06:23:19.015Z,7.00
2017-11-19T06:25:46.300Z,7.00
2017-11-19T06:28:13.213Z,7.00
2017-11-19T06:30:40.506Z,7.00
2017-11-19T06:33:07.449Z,7.00
2017-11-19T06:35:34.375Z,6.80
2017-11-19T06:38:01.267Z,6.90
2017-11-19T06:40:28.191Z,7.00
2017-11-19T06:42:55.074Z,6.90
2017-11-19T06:45:21.991Z,6.50
2017-11-19T06:47:48.913Z,6.60
2017-11-19T06:50:15.811Z,6.60
2017-11-19T06:52:43.940Z,6.20
2017-11-19T06:55:10.851Z,6.20
2017-11-19T06:57:38.135Z,6.30
2017-11-19T07:00:05.059Z,6.30
2017-11-19T07:02:32.343Z,6.00
2017-11-19T07:04:59.285Z,6.00
2017-11-19T07:07:26.178Z,6.00
2017-11-19T07:09:53.067Z,6.00
2017-11-19T07:12:20.039Z,5.90
2017-11-19T07:14:46.931Z,5.90
2017-11-19T07:17:14.247Z,5.70
2017-11-19T07:19:41.140Z,5.70
2017-11-19T07:22:08.442Z,5.90
2017-11-19T07:24:35.339Z,5.90
2017-11-19T07:27:02.647Z,6.40
2017-11-19T07:29:29.584Z,6.40
2017-11-19T07:31:56.475Z,6.50
2017-11-19T07:34:23.772Z,6.60
2017-11-19T07:36:50.686Z,6.60
2017-11-19T07:39:17.975Z,6.80
2017-11-19T07:41:44.892Z,6.80
2017-11-19T07:44:11.821Z,6.70
2017-11-19T07:46:39.116Z,6.80
2017-11-19T07:49:06.041Z,6.80
2017-11-19T07:51:32.943Z,6.60
2017-11-19T07:53:59.844Z,6.70
2017-11-19T07:56:27.476Z,6.50
2017-11-19T07:58:54.763Z,6.40
2017-11-19T08:01:21.671Z,6.50
2017-11-19T08:03:48.587Z,6.70
2017-11-19T08:06:15.486Z,7.00
2017-11-19T08:08:42.395Z,6.90
2017-11-19T08:11:09.319Z,6.50
2017-11-19T08:13:36.210Z,6.60
2017-11-19T08:16:03.502Z,6.60
2017-11-19T08:18:30.426Z,6.60
2017-11-19T08:20:57.319Z,6.60
2017-11-19T08:23:24.211Z,6.50
2017-11-19T08:25:51.123Z,6.40
2017-11-19T08:28:18.058Z,6.30
2017-11-19T08:30:45.031Z,6.20
2017-11-19T08:33:12.323Z,6.40
2017-11-19T08:35:39.332Z,6.40
2017-11-19T08:38:06.699Z,6.40
2017-11-19T08:40:34.020Z,6.50
2017-11-19T08:43:00.996Z,6.50
2017-11-19T08:45:27.915Z,6.60
2017-11-19T08:47:54.811Z,6.50
2017-11-19T08:50:21.728Z,6.50
2017-11-19T08:52:49.053Z,6.60
2017-11-19T08:55:15.952Z,6.60
2017-11-19T08:57:42.844Z,6.90
2017-11-19T09:00:09.766Z,7.10
2017-11-19T09:02:36.688Z,7.30
2017-11-19T09:05:03.601Z,7.50
2017-11-19T09:07:30.488Z,7.10
2017-11-19T09:09:57.412Z,7.20
2017-11-19T09:12:24.706Z,7.50
2017-11-19T09:14:51.623Z,7.40
2017-11-19T09:17:18.547Z,7.70
2017-11-19T09:19:45.885Z,8.00
2017-11-19T09:22:12.794Z,8.00
2017-11-19T09:24:39.707Z,7.90
2017-11-19T09:27:06.997Z,8.20
2017-11-19T09:29:33.910Z,8.20
2017-11-19T09:32:01.246Z,7.40
2017-11-19T09:34:28.142Z,7.40
2017-11-19T09:36:55.103Z,7.30
2017-11-19T09:39:22.091Z,7.20
2017-11-19T09:41:49.447Z,7.30
2017-11-19T09:44:16.390Z,7.30
2017-11-19T09:46:43.339Z,7.50
2017-11-19T09:49:10.651Z,7.30
2017-11-19T09:51:37.543Z,7.30
2017-11-19T09:54:04.872Z,7.20
2017-11-19T09:56:31.839Z,7.20
2017-11-19T09:58:58.728Z,7.20
2017-11-19T10:01:25.633Z,7.40
2017-11-19T10:03:52.578Z,7.60
2017-11-19T10:06:19.474Z,7.60
2017-11-19T10:08:46.390Z,7.70
2017-11-19T10:11:13.287Z,7.70
2017-11-19T10:13:40.259Z,7.60
2017-11-19T10:16:07.143Z,7.50
2017-11-19T10:18:34.067Z,7.50
2017-11-19T10:21:00.959Z,7.60
2017-11-19T10:23:27.849Z,7.80
2017-11-19T10:25:55.169Z,7.70
2017-11-19T10:28:22.143Z,7.70
2017-11-19T10:30:49.096Z,7.30
2017-11-19T10:33:16.389Z,7.60
2017-11-19T10:35:43.304Z,7.60
2017-11-19T10:38:10.647Z,7.40
2017-11-19T10:40:37.704Z,7.40
2017-11-19T10:43:04.987Z,7.30
2017-11-19T10:45:31.879Z,7.30
2017-11-19T10:47:58.887Z,7.20
2017-11-19T10:50:25.891Z,7.10
2017-11-19T10:52:53.202Z,7.20
2017-11-19T10:55:20.091Z,7.20
2017-11-19T10:57:47.444Z,7.40
2017-11-19T11:00:14.333Z,7.40
2017-11-19T11:02:41.258Z,7.20
2017-11-19T11:05:08.551Z,7.40
2017-11-19T11:07:35.542Z,7.40
2017-11-19T11:10:02.854Z,7.40
2017-11-19T11:12:29.844Z,7.40
2017-11-19T11:14:56.811Z,7.50
2017-11-19T11:17:23.739Z,7.50
2017-11-19T11:19:51.092Z,7.70
2017-11-19T11:22:18.396Z,7.80
2017-11-19T11:24:45.311Z,7.80
2017-11-19T11:27:12.229Z,7.70
2017-11-19T11:29:39.283Z,7.50
2017-11-19T11:32:06.194Z,7.50
2017-11-19T11:34:33.194Z,7.70
2017-11-19T11:37:00.132Z,8.00
2017-11-19T11:39:27.410Z,7.70
2017-11-19T11:41:54.299Z,7.70
2017-11-19T11:44:21.225Z,7.90
2017-11-19T11:46:48.224Z,7.70
2017-11-19T11:49:15.507Z,7.60
2017-11-19T11:51:42.422Z,7.60
2017-11-19T11:54:09.738Z,7.70
2017-11-19T11:56:36.631Z,7.70
2017-11-19T11:59:03.974Z,7.60
2017-11-19T12:01:31.269Z,7.70
2017-11-19T12:03:58.275Z,7.70
2017-11-19T12:06:25.563Z,8.00
2017-11-19T12:08:52.478Z,8.00
2017-11-19T12:11:19.839Z,7.90
2017-11-19T12:13:47.190Z,8.20
2017-11-19T12:16:14.131Z,8.20
2017-11-19T12:18:41.423Z,8.60
2017-11-19T12:21:08.338Z,8.60
2017-11-19T12:23:35.694Z,8.60
2017-11-19T12:26:03.008Z,8.60
2017-11-19T12:28:29.932Z,8.60
2017-11-19T12:30:56.834Z,8.70
2017-11-19T12:33:23.759Z,8.80
2017-11-19T12:35:50.684Z,8.90
2017-11-19T12:38:17.575Z,8.70
2017-11-19T12:40:54.154Z,8.80
2017-11-19T12:43:21.454Z,8.40
2017-11-19T12:45:48.367Z,8.40
2017-11-19T12:48:15.255Z,8.40
2017-11-19T12:50:42.171Z,8.60
2017-11-19T12:53:09.132Z,8.60
2017-11-19T12:55:36.485Z,8.40
2017-11-19T12:58:03.380Z,8.50
2017-11-19T13:00:30.723Z,9.00
2017-11-19T13:02:57.623Z,9.00
2017-11-19T13:05:24.567Z,9.00
2017-11-19T13:07:51.593Z,9.10
2017-11-19T13:10:18.911Z,8.90
2017-11-19T13:12:45.807Z,8.90
2017-11-19T13:15:12.735Z,8.40
2017-11-19T13:17:40.030Z,7.70
2017-11-19T13:20:06.927Z,7.70
2017-11-19T13:22:34.287Z,7.10
2017-11-19T13:25:01.748Z,7.00
2017-11-19T13:27:29.095Z,7.10
2017-11-19T13:29:56.470Z,7.10
2017-11-19T13:32:23.781Z,7.30
2017-11-19T13:34:50.678Z,7.20
2017-11-19T13:37:17.705Z,7.10
2017-11-19T13:39:44.995Z,7.30
2017-11-19T13:42:11.945Z,7.30
2017-11-19T13:44:38.843Z,7.10
2017-11-19T13:47:05.840Z,7.00
2017-11-19T13:49:32.772Z,7.20
2017-11-19T13:51:59.695Z,7.50
2017-11-19T13:54:26.988Z,7.80
2017-11-19T13:56:53.912Z,7.80
2017-11-19T13:59:20.798Z,7.90
2017-11-19T14:01:47.784Z,7.90
2017-11-19T14:04:15.071Z,8.00
2017-11-19T14:06:42.089Z,8.00
2017-11-19T14:09:09.395Z,8.10
2017-11-19T14:11:36.388Z,8.10
2017-11-19T14:14:03.710Z,8.20
2017-11-19T14:16:30.597Z,8.20
2017-11-19T14:18:57.953Z,8.20
2017-11-19T14:21:25.244Z,8.30
2017-11-19T14:23:52.141Z,8.30
2017-11-19T14:26:19.499Z,8.30
2017-11-19T14:28:46.811Z,8.50
2017-11-19T14:31:13.794Z,8.50
2017-11-19T14:33:41.160Z,8.70
2017-11-19T14:36:08.462Z,8.70
2017-11-19T14:38:35.389Z,8.70
2017-11-19T14:41:02.370Z,8.80
2017-11-19T14:43:29.351Z,8.80
2017-11-19T14:45:56.713Z,8.20
2017-11-19T14:48:24.070Z,8.00
2017-11-19T14:50:51.385Z,7.90
2017-11-19T14:53:18.349Z,7.90
2017-11-19T14:55:45.269Z,8.00
2017-11-19T14:58:12.244Z,7.80
2017-11-19T15:00:39.136Z,7.80
2017-11-19T15:03:06.062Z,7.70
2017-11-19T15:05:33.418Z,7.80
2017-11-19T15:08:00.745Z,7.80
2017-11-19T15:10:27.675Z,7.80
2017-11-19T15:12:54.601Z,7.80
2017-11-19T15:15:21.608Z,7.80
2017-11-19T15:17:48.922Z,7.80
2017-11-19T15:20:15.947Z,7.80
2017-11-19T15:22:42.975Z,7.80
2017-11-19T15:25:09.916Z,7.80
2017-11-19T15:27:36.818Z,7.80
2017-11-19T15:30:03.761Z,7.90
2017-11-19T15:32:30.734Z,8.00
2017-11-19T15:34:57.621Z,8.00
2017-11-19T15:37:24.581Z,7.90
2017-11-19T15:39:51.629Z,8.00
2017-11-19T15:42:18.521Z,8.10
2017-11-19T15:44:45.850Z,8.20
2017-11-19T15:47:12.824Z,8.20
2017-11-19T15:49:40.123Z,7.90
2017-11-19T15:52:07.060Z,7.90
2017-11-19T15:54:33.952Z,7.80
2017-11-19T15:57:00.874Z,7.80
2017-11-19T15:59:27.872Z,7.90
2017-11-19T16:01:55.245Z,7.80
2017-11-19T16:04:22.544Z,7.90
2017-11-19T16:06:49.438Z,7.90
2017-11-19T16:09:16.377Z,8.00
2017-11-19T16:11:43.829Z,8.00
2017-11-19T16:14:11.191Z,8.10
2017-11-19T16:16:38.507Z,8.00
2017-11-19T16:19:05.486Z,8.00
2017-11-19T16:21:32.776Z,7.90
2017-11-19T16:23:59.682Z,7.90
2017-11-19T16:26:27.879Z,8.20
2017-11-19T16:28:54.813Z,8.20
2017-11-19T16:31:22.115Z,8.20
2017-11-19T16:33:49.022Z,8.20
2017-11-19T16:36:16.056Z,8.20
2017-11-19T16:38:43.347Z,8.20
2017-11-19T16:41:10.238Z,8.20
2017-11-19T16:43:37.214Z,8.30
2017-11-19T16:46:04.498Z,8.10
2017-11-19T16:48:31.398Z,8.10
2017-11-19T16:50:58.358Z,8.20
2017-11-19T16:53:25.718Z,8.20
2017-11-19T16:55:53.008Z,8.20
2017-11-19T16:58:20.007Z,8.20
2017-11-19T17:00:47.368Z,8.00
2017-11-19T17:03:14.719Z,7.70
2017-11-19T17:05:41.669Z,7.70
2017-11-19T17:08:09.014Z,7.90
2017-11-19T17:10:35.914Z,7.90
2017-11-19T17:13:02.800Z,7.80
2017-11-19T17:15:29.723Z,7.60
2017-11-19T17:17:56.702Z,7.20
2017-11-19T17:20:23.615Z,7.20
2017-11-19T17:22:50.506Z,7.30
2017-11-19T17:25:17.835Z,7.60
2017-11-19T17:27:44.728Z,7.60
2017-11-19T17:30:11.626Z,7.70
2017-11-19T17:32:38.564Z,7.60
2017-11-19T17:35:05.531Z,7.70
2017-11-19T17:37:32.833Z,7.60
2017-11-19T17:39:59.765Z,7.60
2017-11-19T17:42:26.720Z,7.40
2017-11-19T17:44:53.630Z,7.40
2017-11-19T17:47:20.962Z,7.30
2017-11-19T17:49:47.889Z,7.30
2017-11-19T17:52:14.868Z,7.10
2017-11-19T17:54:41.776Z,7.20
2017-11-19T17:57:08.700Z,7.40
2017-11-19T17:59:35.671Z,7.40
2017-11-19T18:02:02.630Z,7.40
2017-11-19T18:04:31.838Z,7.50
2017-11-19T18:06:59.200Z,7.40
2017-11-19T18:09:26.620Z,7.40
2017-11-19T18:11:53.507Z,7.20
2017-11-19T18:14:20.456Z,7.10
2017-11-19T18:16:51.055Z,7.30
2017-11-19T18:19:18.063Z,7.30
2017-11-19T18:21:46.301Z,7.40
2017-11-19T18:24:13.633Z,7.00
2017-11-19T18:26:40.564Z,7.00
2017-11-19T18:29:07.488Z,6.90
2017-11-19T18:31:34.403Z,6.90
2017-11-19T18:34:01.305Z,6.90
2017-11-19T18:36:28.262Z,6.90
2017-11-19T18:38:55.176Z,6.80
2017-11-19T18:41:22.119Z,6.80
2017-11-19T18:43:49.063Z,6.60
2017-11-19T18:46:15.963Z,6.50
2017-11-19T18:48:42.943Z,6.30
2017-11-19T18:51:10.257Z,6.10
2017-11-19T18:53:37.150Z,6.10
2017-11-19T18:56:04.484Z,6.10
2017-11-19T18:58:31.435Z,6.10
2017-11-19T19:00:58.762Z,6.20
2017-11-19T19:03:25.665Z,6.20
2017-11-19T19:05:52.608Z,6.30
2017-11-19T19:08:19.498Z,6.40
2017-11-19T19:10:46.473Z,6.50
2017-11-19T19:13:13.398Z,6.50
2017-11-19T19:15:40.311Z,6.40
2017-11-19T19:18:07.247Z,6.40
2017-11-19T19:20:34.150Z,6.40
2017-11-19T19:23:01.047Z,6.40
2017-11-19T19:25:27.968Z,6.30
2017-11-19T19:27:54.994Z,6.40
2017-11-19T19:30:21.878Z,6.40
2017-11-19T19:32:48.891Z,6.60
2017-11-19T19:35:16.242Z,7.00
2017-11-19T19:37:43.554Z,6.80
2017-11-19T19:40:10.473Z,6.80
2017-11-19T19:42:37.367Z,6.70
2017-11-19T19:45:04.334Z,6.60
2017-11-19T19:47:31.693Z,6.80
2017-11-19T19:49:58.978Z,7.00
2017-11-19T19:52:25.895Z,7.00
2017-11-19T19:54:53.255Z,6.80
2017-11-19T19:57:20.548Z,6.50
2017-11-19T19:59:49.269Z,6.50
2017-11-19T20:02:16.191Z,6.30
2017-11-19T20:04:43.123Z,6.40
2017-11-19T20:07:10.447Z,6.80
2017-11-19T20:09:37.749Z,6.90
2017-11-19T20:12:04.642Z,6.90
2017-11-19T20:14:31.613Z,7.00
2017-11-19T20:16:59.074Z,7.10
2017-11-19T20:19:26.427Z,7.00
2017-11-19T20:21:53.791Z,7.00
2017-11-19T20:24:21.239Z,7.00
2017-11-19T20:26:48.605Z,7.00
2017-11-19T20:29:15.885Z,7.10
2017-11-19T20:31:42.903Z,7.10
2017-11-19T20:34:10.257Z,7.00
2017-11-19T20:36:37.567Z,6.80
2017-11-19T20:39:04.515Z,6.80
2017-11-19T20:41:31.424Z,6.50
2017-11-19T20:43:58.740Z,6.30
2017-11-19T20:46:25.631Z,6.30
2017-11-19T20:48:52.955Z,6.30
2017-11-19T20:51:19.880Z,6.30
2017-11-19T20:53:46.858Z,6.20
2017-11-19T20:56:13.780Z,6.20
2017-11-19T20:58:40.754Z,6.20
2017-11-19T21:01:08.107Z,6.20
2017-11-19T21:03:35.063Z,6.20
2017-11-19T21:06:02.006Z,6.20
2017-11-19T21:08:29.360Z,6.00
2017-11-19T21:10:56.671Z,5.90
2017-11-19T21:13:23.559Z,5.90
2017-11-19T21:15:50.998Z,6.00
2017-11-19T21:18:17.979Z,6.00
2017-11-19T21:20:45.333Z,6.10
2017-11-19T21:23:12.270Z,6.10
2017-11-19T21:25:39.595Z,6.00
2017-11-19T21:28:06.584Z,6.00
2017-11-19T21:30:33.483Z,6.00
2017-11-19T21:33:00.917Z,6.00
2017-11-19T21:35:27.879Z,6.00
2017-11-19T21:37:54.770Z,6.10
2017-11-19T21:40:22.095Z,5.90
2017-11-19T21:42:49.077Z,5.90
2017-11-19T21:45:16.427Z,6.00
2017-11-19T21:47:43.726Z,6.20
2017-11-19T21:50:10.687Z,6.20
2017-11-19T21:52:37.674Z,6.40
2017-11-19T21:55:04.626Z,6.10
2017-11-19T21:57:31.978Z,5.80
2017-11-19T21:59:59.302Z,5.70
2017-11-19T22:02:26.198Z,5.70
2017-11-19T22:04:53.482Z,5.80
2017-11-19T22:07:20.495Z,5.70
2017-11-19T22:09:47.788Z,5.80
2017-11-19T22:12:14.791Z,5.80
2017-11-19T22:14:42.088Z,5.90
2017-11-19T22:17:09.020Z,5.90
2017-11-19T22:19:35.902Z,6.00
2017-11-19T22:22:02.831Z,5.90
2017-11-19T22:24:29.826Z,5.80
2017-11-19T22:26:57.124Z,5.90
2017-11-19T22:29:24.121Z,5.90
2017-11-19T22:31:51.084Z,5.80
2017-11-19T22:34:18.427Z,5.90
2017-11-19T22:36:45.722Z,5.80
2017-11-19T22:39:12.735Z,5.80
2017-11-19T22:41:40.103Z,5.90
2017-11-19T22:44:07.459Z,5.90
2017-11-19T22:46:34.799Z,5.90
2017-11-19T22:49:02.115Z,5.90
2017-11-19T22:51:29.007Z,5.90
2017-11-19T22:53:56.358Z,6.20
2017-11-19T22:56:23.643Z,6.30
2017-11-19T22:58:50.643Z,6.30
2017-11-19T23:01:17.534Z,6.50
2017-11-19T23:03:44.548Z,6.50
2017-11-19T23:06:11.496Z,6.50
2017-11-19T23:08:38.787Z,6.60
2017-11-19T23:11:05.698Z,6.60
2017-11-19T23:13:33.019Z,6.10
2017-11-19T23:16:00.004Z,6.10
2017-11-19T23:18:27.292Z,5.80
2017-11-19T23:20:54.212Z,5.80
2017-11-19T23:23:21.563Z,5.70
2017-11-19T23:25:48.858Z,5.70
2017-11-19T23:28:15.856Z,5.70
2017-11-19T23:30:43.214Z,5.80
2017-11-19T23:33:10.576Z,5.80
2017-11-19T23:35:37.920Z,5.80
2017-11-19T23:38:05.282Z,5.80
2017-11-19T23:40:32.602Z,5.80
2017-11-19T23:42:59.587Z,5.80
2017-11-19T23:45:26.874Z,5.80
2017-11-19T23:47:53.790Z,5.80
2017-11-19T23:50:21.238Z,5.80
2017-11-19T23:52:48.131Z,5.80
2017-11-19T23:55:15.047Z,5.70
2017-11-19T23:57:42.335Z,5.60
